»·PEaware :: N2013F KBUR-KLAS

N2013F :: KBUR-KLAS

FLIGHT INFORMATION

Flight Status: Arrived
Operator: Privately registered:
United States
More flights under this callsign
Pilot: Spencer F. (32151)
Aircraft: SOCATA TBM-900
(TBM9)
More flights by this aircraft type
Origin: KBUR Bob Hope-Burbank
United States
Destination: KLAS McCarran Intl
United States
More flights between these airports :: More routes between these airports
Route: +VNY3 DAG CRESO4
File this flight plan on PilotEdge
Remarks:
Altitude:
(Current/Filed)
25,500ft
Speed:
(Current/Filed)
270kts
Departed: 13-Nov-20 12:35 PM
Arrived: 13-Nov-20 01:32 PM
Distance/Time
Traveled:
194nm/0:57
Distance/Time
To Go:
Arrived

Flight Plot

Page will automatically refresh every two minutes.

Flight plan parsing failed; only flown route is shown


Map Options




Map Legend


Flown Route
Filed Route
Departure Airport
Arrival Airport
Navaid (VOR, NDB)
Fix

Horizontal Profiles

Position Reports

Time Latitude Longitude Heading Altitude Ground
Speed
13-Nov-20 12:18 34.199455 -118.359436 177 717ft 0kts
13-Nov-20 12:19 34.199455 -118.359436 177 717ft 0kts
13-Nov-20 12:20 34.199455 -118.359436 177 717ft 0kts
13-Nov-20 12:21 34.199455 -118.359436 177 717ft 0kts
13-Nov-20 12:22 34.199455 -118.359436 177 717ft 0kts
13-Nov-20 12:23 34.199455 -118.359436 177 717ft 0kts
13-Nov-20 12:24 34.199455 -118.359436 177 717ft 0kts
13-Nov-20 12:25 34.199455 -118.359436 177 717ft 0kts
13-Nov-20 12:26 34.199455 -118.359436 177 717ft 0kts
13-Nov-20 12:27 34.199455 -118.359436 177 717ft 0kts
13-Nov-20 12:28 34.199455 -118.359436 177 717ft 0kts
13-Nov-20 12:29 34.199455 -118.359436 177 717ft 0kts
13-Nov-20 12:30 34.201059 -118.358595 351 723ft 24kts
13-Nov-20 12:31 34.205585 -118.359748 347 744ft 22kts
13-Nov-20 12:32 34.211985 -118.361323 40 781ft 0kts
13-Nov-20 12:33 34.211966 -118.360391 158 780ft 22kts
13-Nov-20 12:34 34.180577 -118.365823 251 1740ft 174kts
13-Nov-20 12:35 34.201239 -118.419173 298 3706ft 202kts
13-Nov-20 12:36 34.220073 -118.491359 279 3934ft 231kts
13-Nov-20 12:37 34.237347 -118.544067 1 5893ft 180kts
13-Nov-20 12:38 34.263690 -118.495718 47 8010ft 189kts
13-Nov-20 12:39 34.306192 -118.458964 31 10115ft 197kts
13-Nov-20 12:40 34.351811 -118.421998 29 12166ft 206kts
13-Nov-20 12:41 34.404227 -118.379775 30 12923ft 257kts
13-Nov-20 12:42 34.465800 -118.329225 36 12914ft 281kts
13-Nov-20 12:43 34.512458 -118.254783 46 13873ft 252kts
13-Nov-20 12:44 34.551095 -118.192734 49 16399ft 231kts
13-Nov-20 12:45 34.589883 -118.130464 47 18461ft 237kts
13-Nov-20 12:46 34.628785 -118.066452 58 20319ft 246kts
13-Nov-20 12:47 34.640058 -117.982660 73 22066ft 258kts
13-Nov-20 12:48 34.650162 -117.892231 76 22849ft 295kts
13-Nov-20 12:49 34.660954 -117.790375 77 22875ft 317kts
13-Nov-20 12:50 34.683855 -117.689328 69 22866ft 318kts
13-Nov-20 12:51 34.708449 -117.591063 67 24203ft 282kts
13-Nov-20 12:52 34.732020 -117.498505 67 25019ft 305kts
13-Nov-20 12:53 34.757575 -117.397998 67 25069ft 325kts
13-Nov-20 12:54 34.784232 -117.292797 67 25057ft 331kts
13-Nov-20 12:55 34.810934 -117.186997 67 25063ft 333kts
13-Nov-20 12:56 34.837736 -117.080362 67 25049ft 334kts
13-Nov-20 12:58 34.864336 -116.974068 67 25054ft 334kts
13-Nov-20 12:59 34.891068 -116.866816 68 25047ft 334kts
13-Nov-20 13:00 34.918399 -116.756655 66 25133ft 350kts
13-Nov-20 13:01 34.946324 -116.643681 66 25146ft 357kts
13-Nov-20 13:02 34.980025 -116.535994 51 25060ft 332kts
13-Nov-20 13:03 35.024154 -116.438891 53 25059ft 329kts
13-Nov-20 13:04 35.067544 -116.341597 55 25069ft 330kts
13-Nov-20 13:05 35.110691 -116.244079 55 24747ft 330kts
13-Nov-20 13:06 35.153700 -116.146501 55 22827ft 316kts
13-Nov-20 13:07 35.193103 -116.056724 56 20814ft 297kts
13-Nov-20 13:08 35.230923 -115.970326 58 18850ft 287kts
13-Nov-20 13:09 35.267353 -115.886951 59 17142ft 290kts
13-Nov-20 13:10 35.304701 -115.802190 57 14889ft 276kts
13-Nov-20 13:11 35.351020 -115.734354 47 12339ft 256kts
13-Nov-20 13:12 35.396160 -115.673372 48 10342ft 234kts
13-Nov-20 13:13 35.437598 -115.617836 47 9951ft 206kts
13-Nov-20 13:14 35.479069 -115.562332 47 9964ft 234kts
13-Nov-20 13:14 35.515043 -115.514098 47 9936ft 238kts
13-Nov-20 13:16 35.567356 -115.443923 47 9940ft 247kts
13-Nov-20 13:16 35.605953 -115.392025 47 9639ft 260kts
13-Nov-20 13:18 35.655016 -115.325972 48 8037ft 202kts
13-Nov-20 13:18 35.687695 -115.281929 48 7963ft 222kts
13-Nov-20 13:19 35.728965 -115.226193 48 7945ft 226kts
13-Nov-20 13:20 35.770906 -115.169455 48 7950ft 227kts
13-Nov-20 13:21 35.827154 -115.146316 2 7925ft 217kts
13-Nov-20 13:22 35.885837 -115.143210 1 7956ft 216kts
13-Nov-20 13:23 35.946289 -115.139681 2 7950ft 227kts
13-Nov-20 13:24 36.008661 -115.135782 2 7943ft 220kts
13-Nov-20 13:25 36.063437 -115.132154 2 7925ft 189kts
13-Nov-20 13:26 36.116190 -115.128614 2 6766ft 192kts
13-Nov-20 13:27 36.152351 -115.117491 43 4649ft 116kts
13-Nov-20 13:28 36.151076 -115.128505 201 2796ft 101kts
13-Nov-20 13:29 36.122880 -115.143131 204 2999ft 93kts
13-Nov-20 13:30 36.101905 -115.155082 205 2207ft 84kts
13-Nov-20 13:31 36.094193 -115.160865 293 2112ft 0kts
13-Nov-20 13:32 36.094193 -115.160865 293 2112ft 0kts
13-Nov-20 13:33 36.096548 -115.160623 25 2105ft 20kts

Navigation Log

Ident Type
Flight plan parsing failed, navigation log unavailable